sensor_id;sensor_type;location;lat;lon;timestamp;pressure;altitude;pressure_sealevel;temperature;humidity
5380;BME280;2713;42.680;23.310;2022-09-21T00:01:04;95213.97;;;13.50;59.20
5380;BME280;2713;42.680;23.310;2022-09-21T00:03:30;95217.16;;;13.46;59.13
5380;BME280;2713;42.680;23.310;2022-09-21T00:06:01;95216.75;;;13.42;58.87
5380;BME280;2713;42.680;23.310;2022-09-21T00:08:28;95218.09;;;13.32;59.50
5380;BME280;2713;42.680;23.310;2022-09-21T00:10:56;95219.00;;;13.17;60.44
5380;BME280;2713;42.680;23.310;2022-09-21T00:13:24;95224.88;;;13.05;60.90
5380;BME280;2713;42.680;23.310;2022-09-21T00:15:53;95219.75;;;12.84;61.43
5380;BME280;2713;42.680;23.310;2022-09-21T00:18:20;95232.13;;;12.82;61.27
5380;BME280;2713;42.680;23.310;2022-09-21T00:20:47;95225.56;;;12.86;61.56
5380;BME280;2713;42.680;23.310;2022-09-21T00:23:13;95219.19;;;12.95;60.80
5380;BME280;2713;42.680;23.310;2022-09-21T00:25:42;95212.13;;;12.89;60.67
5380;BME280;2713;42.680;23.310;2022-09-21T00:28:10;95211.16;;;12.68;61.41
5380;BME280;2713;42.680;23.310;2022-09-21T00:30:37;95211.56;;;12.65;61.63
5380;BME280;2713;42.680;23.310;2022-09-21T00:33:04;95211.56;;;12.65;61.52
5380;BME280;2713;42.680;23.310;2022-09-21T00:35:31;95217.16;;;12.62;61.79
5380;BME280;2713;42.680;23.310;2022-09-21T00:38:00;95221.00;;;12.66;61.81
5380;BME280;2713;42.680;23.310;2022-09-21T00:40:27;95217.31;;;12.61;61.64
5380;BME280;2713;42.680;23.310;2022-09-21T00:43:11;95219.59;;;12.43;61.69
5380;BME280;2713;42.680;23.310;2022-09-21T00:45:38;95214.38;;;12.43;62.13
5380;BME280;2713;42.680;23.310;2022-09-21T00:48:05;95214.44;;;12.49;61.57
5380;BME280;2713;42.680;23.310;2022-09-21T00:50:33;95222.75;;;12.38;61.97
5380;BME280;2713;42.680;23.310;2022-09-21T00:53:03;95219.53;;;12.36;61.99
5380;BME280;2713;42.680;23.310;2022-09-21T00:55:33;95219.25;;;12.31;61.94
5380;BME280;2713;42.680;23.310;2022-09-21T00:58:06;95216.97;;;11.86;63.04
5380;BME280;2713;42.680;23.310;2022-09-21T01:00:36;95213.63;;;11.92;62.94
5380;BME280;2713;42.680;23.310;2022-09-21T01:03:05;95213.44;;;11.93;63.13
5380;BME280;2713;42.680;23.310;2022-09-21T01:05:32;95205.97;;;12.05;62.87
5380;BME280;2713;42.680;23.310;2022-09-21T01:08:01;95214.16;;;12.23;62.32
5380;BME280;2713;42.680;23.310;2022-09-21T01:10:36;95217.19;;;12.27;61.73
5380;BME280;2713;42.680;23.310;2022-09-21T01:13:14;95220.66;;;12.12;62.51
5380;BME280;2713;42.680;23.310;2022-09-21T01:15:49;95213.28;;;12.16;62.35
5380;BME280;2713;42.680;23.310;2022-09-21T01:18:25;95215.66;;;12.11;62.25
5380;BME280;2713;42.680;23.310;2022-09-21T01:21:17;95214.59;;;12.05;62.27
5380;BME280;2713;42.680;23.310;2022-09-21T01:24:00;95211.50;;;12.16;62.06
5380;BME280;2713;42.680;23.310;2022-09-21T01:26:42;95212.81;;;12.27;61.68
5380;BME280;2713;42.680;23.310;2022-09-21T01:29:18;95207.53;;;12.20;61.81
5380;BME280;2713;42.680;23.310;2022-09-21T01:34:26;95199.78;;;12.27;61.63
5380;BME280;2713;42.680;23.310;2022-09-21T01:36:56;95195.38;;;12.28;61.59
5380;BME280;2713;42.680;23.310;2022-09-21T01:39:25;95194.94;;;12.24;61.70
5380;BME280;2713;42.680;23.310;2022-09-21T01:41:54;95198.09;;;12.19;61.64
5380;BME280;2713;42.680;23.310;2022-09-21T01:44:26;95192.09;;;12.19;61.72
5380;BME280;2713;42.680;23.310;2022-09-21T01:46:55;95199.66;;;12.14;62.21
5380;BME280;2713;42.680;23.310;2022-09-21T01:49:28;95198.66;;;12.15;62.08
5380;BME280;2713;42.680;23.310;2022-09-21T01:51:58;95199.53;;;12.22;61.59
5380;BME280;2713;42.680;23.310;2022-09-21T01:54:31;95192.63;;;12.14;62.11
5380;BME280;2713;42.680;23.310;2022-09-21T01:57:04;95190.91;;;12.22;61.52
5380;BME280;2713;42.680;23.310;2022-09-21T01:59:41;95185.75;;;12.28;61.17
5380;BME280;2713;42.680;23.310;2022-09-21T02:02:16;95195.25;;;12.36;61.42
5380;BME280;2713;42.680;23.310;2022-09-21T02:04:44;95197.03;;;12.14;61.87
5380;BME280;2713;42.680;23.310;2022-09-21T02:07:11;95192.81;;;12.13;62.20
5380;BME280;2713;42.680;23.310;2022-09-21T02:09:38;95190.09;;;12.21;62.00
5380;BME280;2713;42.680;23.310;2022-09-21T02:12:05;95194.16;;;12.09;62.03
5380;BME280;2713;42.680;23.310;2022-09-21T02:14:35;95197.00;;;11.93;62.60
5380;BME280;2713;42.680;23.310;2022-09-21T02:17:11;95198.81;;;11.92;62.18
5380;BME280;2713;42.680;23.310;2022-09-21T02:19:44;95192.13;;;12.04;62.07
5380;BME280;2713;42.680;23.310;2022-09-21T02:22:17;95198.47;;;12.16;62.06
5380;BME280;2713;42.680;23.310;2022-09-21T02:24:53;95206.22;;;12.10;61.99
5380;BME280;2713;42.680;23.310;2022-09-21T02:27:26;95205.97;;;12.26;61.63
5380;BME280;2713;42.680;23.310;2022-09-21T02:30:03;95209.22;;;12.28;61.28
5380;BME280;2713;42.680;23.310;2022-09-21T02:32:38;95212.81;;;12.27;61.65
5380;BME280;2713;42.680;23.310;2022-09-21T02:35:12;95210.06;;;12.14;61.82
5380;BME280;2713;42.680;23.310;2022-09-21T02:37:46;95210.06;;;12.14;61.96
5380;BME280;2713;42.680;23.310;2022-09-21T02:40:22;95206.69;;;11.99;62.28
5380;BME280;2713;42.680;23.310;2022-09-21T02:42:55;95204.25;;;12.12;61.76
5380;BME280;2713;42.680;23.310;2022-09-21T02:45:27;95201.38;;;12.07;62.61
5380;BME280;2713;42.680;23.310;2022-09-21T02:47:59;95209.19;;;12.07;62.37
5380;BME280;2713;42.680;23.310;2022-09-21T02:50:31;95209.28;;;11.78;63.25
5380;BME280;2713;42.680;23.310;2022-09-21T02:53:00;95209.34;;;11.69;63.65
5380;BME280;2713;42.680;23.310;2022-09-21T02:55:31;95206.09;;;11.82;63.33
5380;BME280;2713;42.680;23.310;2022-09-21T02:58:01;95215.00;;;11.88;63.11
5380;BME280;2713;42.680;23.310;2022-09-21T03:00:32;95212.91;;;11.98;62.97
5380;BME280;2713;42.680;23.310;2022-09-21T03:03:00;95206.00;;;11.90;62.98
5380;BME280;2713;42.680;23.310;2022-09-21T03:05:41;95210.16;;;12.06;62.26
5380;BME280;2713;42.680;23.310;2022-09-21T03:08:08;95207.13;;;12.02;62.44
5380;BME280;2713;42.680;23.310;2022-09-21T03:10:35;95216.50;;;11.97;62.53
5380;BME280;2713;42.680;23.310;2022-09-21T03:13:04;95221.09;;;11.95;62.82
5380;BME280;2713;42.680;23.310;2022-09-21T03:15:32;95215.16;;;11.86;62.92
5380;BME280;2713;42.680;23.310;2022-09-21T03:17:59;95211.75;;;11.86;62.50
5380;BME280;2713;42.680;23.310;2022-09-21T03:20:26;95208.00;;;11.88;62.65
5380;BME280;2713;42.680;23.310;2022-09-21T03:22:53;95211.81;;;11.92;62.55
5380;BME280;2713;42.680;23.310;2022-09-21T03:25:19;95205.66;;;11.79;62.94
5380;BME280;2713;42.680;23.310;2022-09-21T03:27:47;95205.28;;;11.82;62.60
5380;BME280;2713;42.680;23.310;2022-09-21T03:30:18;95216.00;;;11.72;63.43
5380;BME280;2713;42.680;23.310;2022-09-21T03:32:47;95211.59;;;11.73;63.38
5380;BME280;2713;42.680;23.310;2022-09-21T03:35:14;95208.19;;;11.72;63.23
5380;BME280;2713;42.680;23.310;2022-09-21T03:37:43;95214.72;;;11.68;63.01
5380;BME280;2713;42.680;23.310;2022-09-21T03:40:11;95223.47;;;11.60;63.72
5380;BME280;2713;42.680;23.310;2022-09-21T03:42:38;95216.81;;;11.73;63.50
5380;BME280;2713;42.680;23.310;2022-09-21T03:45:06;95218.81;;;11.71;63.50
5380;BME280;2713;42.680;23.310;2022-09-21T03:47:33;95219.16;;;11.67;63.49
5380;BME280;2713;42.680;23.310;2022-09-21T03:50:02;95218.34;;;11.52;64.07
5380;BME280;2713;42.680;23.310;2022-09-21T03:52:29;95222.81;;;11.58;63.88
5380;BME280;2713;42.680;23.310;2022-09-21T03:54:56;95214.47;;;11.63;63.80
5380;BME280;2713;42.680;23.310;2022-09-21T03:57:23;95225.06;;;11.61;63.93
5380;BME280;2713;42.680;23.310;2022-09-21T03:59:50;95224.06;;;11.48;64.35
5380;BME280;2713;42.680;23.310;2022-09-21T04:02:18;95226.50;;;11.49;64.31
5380;BME280;2713;42.680;23.310;2022-09-21T04:04:46;95224.81;;;11.56;64.12
5380;BME280;2713;42.680;23.310;2022-09-21T04:07:15;95218.06;;;11.62;64.06
5380;BME280;2713;42.680;23.310;2022-09-21T04:09:42;95217.25;;;11.76;63.74
5380;BME280;2713;42.680;23.310;2022-09-21T04:12:08;95228.72;;;11.82;63.80
5380;BME280;2713;42.680;23.310;2022-09-21T04:14:35;95231.78;;;11.85;63.80
5380;BME280;2713;42.680;23.310;2022-09-21T04:17:02;95223.94;;;12.00;63.40
5380;BME280;2713;42.680;23.310;2022-09-21T04:19:29;95229.59;;;12.03;63.69
5380;BME280;2713;42.680;23.310;2022-09-21T04:21:56;95222.28;;;12.13;63.33
5380;BME280;2713;42.680;23.310;2022-09-21T04:24:24;95225.88;;;12.12;63.42
5380;BME280;2713;42.680;23.310;2022-09-21T04:26:52;95225.88;;;12.12;63.56
5380;BME280;2713;42.680;23.310;2022-09-21T04:29:19;95218.59;;;11.87;64.48
5380;BME280;2713;42.680;23.310;2022-09-21T04:31:46;95226.09;;;11.96;64.32
5380;BME280;2713;42.680;23.310;2022-09-21T04:34:12;95224.81;;;12.07;64.09
5380;BME280;2713;42.680;23.310;2022-09-21T04:36:39;95219.75;;;12.20;63.48
5380;BME280;2713;42.680;23.310;2022-09-21T04:39:06;95225.41;;;12.24;63.34
5380;BME280;2713;42.680;23.310;2022-09-21T04:41:34;95218.75;;;12.21;62.65
5380;BME280;2713;42.680;23.310;2022-09-21T04:44:01;95223.50;;;11.96;63.75
5380;BME280;2713;42.680;23.310;2022-09-21T04:46:28;95228.16;;;12.01;63.87
5380;BME280;2713;42.680;23.310;2022-09-21T04:48:55;95227.94;;;12.17;63.08
5380;BME280;2713;42.680;23.310;2022-09-21T04:51:22;95225.22;;;12.25;63.15
5380;BME280;2713;42.680;23.310;2022-09-21T04:53:49;95224.84;;;12.28;62.96
5380;BME280;2713;42.680;23.310;2022-09-21T04:56:16;95226.28;;;12.31;62.64
5380;BME280;2713;42.680;23.310;2022-09-21T04:58:45;95225.16;;;12.40;62.40
5380;BME280;2713;42.680;23.310;2022-09-21T05:01:12;95233.84;;;12.47;61.99
5380;BME280;2713;42.680;23.310;2022-09-21T05:03:39;95235.41;;;12.62;61.42
5380;BME280;2713;42.680;23.310;2022-09-21T05:06:06;95226.69;;;12.77;61.13
5380;BME280;2713;42.680;23.310;2022-09-21T05:08:34;95227.31;;;12.79;60.74
5380;BME280;2713;42.680;23.310;2022-09-21T05:11:18;95236.03;;;12.92;60.66
5380;BME280;2713;42.680;23.310;2022-09-21T05:13:47;95239.22;;;12.88;60.69
5380;BME280;2713;42.680;23.310;2022-09-21T05:16:14;95237.22;;;12.90;60.54
5380;BME280;2713;42.680;23.310;2022-09-21T05:18:41;95238.59;;;12.86;60.64
5380;BME280;2713;42.680;23.310;2022-09-21T05:21:08;95241.81;;;12.88;60.34
5380;BME280;2713;42.680;23.310;2022-09-21T05:23:36;95239.97;;;12.82;60.66
5380;BME280;2713;42.680;23.310;2022-09-21T05:26:04;95234.06;;;12.94;60.10
5380;BME280;2713;42.680;23.310;2022-09-21T05:28:32;95239.34;;;13.01;59.96
5380;BME280;2713;42.680;23.310;2022-09-21T05:31:03;95236.34;;;13.04;59.83
5380;BME280;2713;42.680;23.310;2022-09-21T05:33:37;95230.09;;;13.05;65.71
5380;BME280;2713;42.680;23.310;2022-09-21T05:36:15;95234.88;;;13.23;60.46
5380;BME280;2713;42.680;23.310;2022-09-21T05:38:51;95233.25;;;13.15;59.47
5380;BME280;2713;42.680;23.310;2022-09-21T05:41:18;95242.50;;;13.17;59.75
5380;BME280;2713;42.680;23.310;2022-09-21T05:43:45;95234.69;;;13.24;59.83
5380;BME280;2713;42.680;23.310;2022-09-21T05:46:18;95228.91;;;13.29;59.38
5380;BME280;2713;42.680;23.310;2022-09-21T05:48:51;95239.63;;;13.40;59.31
5380;BME280;2713;42.680;23.310;2022-09-21T05:51:26;95239.97;;;13.31;59.14
5380;BME280;2713;42.680;23.310;2022-09-21T05:53:59;95230.75;;;13.35;59.33
5380;BME280;2713;42.680;23.310;2022-09-21T05:56:35;95230.03;;;13.47;59.12
5380;BME280;2713;42.680;23.310;2022-09-21T05:59:25;95240.09;;;13.57;58.98
5380;BME280;2713;42.680;23.310;2022-09-21T06:02:04;95222.03;;;13.55;58.66
5380;BME280;2713;42.680;23.310;2022-09-21T06:04:35;95235.69;;;13.57;58.53
5380;BME280;2713;42.680;23.310;2022-09-21T06:07:02;95243.59;;;13.70;58.67
5380;BME280;2713;42.680;23.310;2022-09-21T06:09:29;95239.06;;;13.86;58.14
5380;BME280;2713;42.680;23.310;2022-09-21T06:11:56;95239.66;;;13.88;57.98
5380;BME280;2713;42.680;23.310;2022-09-21T06:14:23;95238.31;;;14.05;57.99
5380;BME280;2713;42.680;23.310;2022-09-21T06:16:51;95234.88;;;13.98;58.24
5380;BME280;2713;42.680;23.310;2022-09-21T06:19:20;95243.78;;;14.10;57.85
5380;BME280;2713;42.680;23.310;2022-09-21T06:21:46;95241.09;;;14.57;64.36
5380;BME280;2713;42.680;23.310;2022-09-21T06:24:13;95241.16;;;14.16;58.26
5380;BME280;2713;42.680;23.310;2022-09-21T06:26:40;95246.00;;;14.19;58.33
5380;BME280;2713;42.680;23.310;2022-09-21T06:29:07;95251.31;;;14.39;58.49
5380;BME280;2713;42.680;23.310;2022-09-21T06:31:34;95247.56;;;14.75;57.23
5380;BME280;2713;42.680;23.310;2022-09-21T06:34:01;95259.66;;;15.08;56.33
5380;BME280;2713;42.680;23.310;2022-09-21T06:36:29;95258.25;;;14.99;56.26
5380;BME280;2713;42.680;23.310;2022-09-21T06:38:56;95252.19;;;14.86;56.26
5380;BME280;2713;42.680;23.310;2022-09-21T06:41:23;95260.22;;;14.71;57.31
5380;BME280;2713;42.680;23.310;2022-09-21T06:43:52;95259.41;;;14.64;57.39
5380;BME280;2713;42.680;23.310;2022-09-21T06:46:19;95246.97;;;14.86;56.38
5380;BME280;2713;42.680;23.310;2022-09-21T06:48:46;95261.44;;;15.21;56.01
5380;BME280;2713;42.680;23.310;2022-09-21T06:51:14;95266.28;;;15.50;54.75
5380;BME280;2713;42.680;23.310;2022-09-21T06:53:42;95265.25;;;15.64;54.50
5380;BME280;2713;42.680;23.310;2022-09-21T06:56:09;95260.00;;;16.22;70.55
5380;BME280;2713;42.680;23.310;2022-09-21T06:58:36;95271.47;;;15.77;54.70
5380;BME280;2713;42.680;23.310;2022-09-21T07:01:05;95273.31;;;15.43;55.19
5380;BME280;2713;42.680;23.310;2022-09-21T07:03:33;95267.88;;;15.45;55.35
5380;BME280;2713;42.680;23.310;2022-09-21T07:06:00;95269.09;;;15.36;55.82
5380;BME280;2713;42.680;23.310;2022-09-21T07:08:26;95273.94;;;14.93;57.08
5380;BME280;2713;42.680;23.310;2022-09-21T07:10:58;95273.16;;;14.92;56.69
5380;BME280;2713;42.680;23.310;2022-09-21T07:13:25;95267.31;;;15.03;56.88
5380;BME280;2713;42.680;23.310;2022-09-21T07:15:52;95270.13;;;15.08;57.50
5380;BME280;2713;42.680;23.310;2022-09-21T07:18:18;95274.34;;;15.16;57.47
5380;BME280;2713;42.680;23.310;2022-09-21T07:20:46;95265.06;;;14.87;57.36
5380;BME280;2713;42.680;23.310;2022-09-21T07:23:15;95268.50;;;15.01;57.57
5380;BME280;2713;42.680;23.310;2022-09-21T07:25:42;95253.81;;;15.00;58.01
5380;BME280;2713;42.680;23.310;2022-09-21T07:28:11;95264.47;;;14.79;58.62
5380;BME280;2713;42.680;23.310;2022-09-21T07:30:39;95271.25;;;14.40;59.60
5380;BME280;2713;42.680;23.310;2022-09-21T07:33:06;95273.06;;;14.46;59.45
5380;BME280;2713;42.680;23.310;2022-09-21T07:35:34;95277.22;;;14.28;60.24
5380;BME280;2713;42.680;23.310;2022-09-21T07:38:02;95276.25;;;14.35;60.54
5380;BME280;2713;42.680;23.310;2022-09-21T07:40:29;95278.41;;;14.25;59.68
5380;BME280;2713;42.680;23.310;2022-09-21T07:42:56;95268.25;;;14.50;59.41
5380;BME280;2713;42.680;23.310;2022-09-21T07:45:25;95275.78;;;14.32;59.49
5380;BME280;2713;42.680;23.310;2022-09-21T07:47:52;95274.44;;;14.36;59.44
5380;BME280;2713;42.680;23.310;2022-09-21T07:50:20;95284.63;;;14.17;59.87
5380;BME280;2713;42.680;23.310;2022-09-21T07:52:47;95258.69;;;14.29;59.98
5380;BME280;2713;42.680;23.310;2022-09-21T07:55:14;95273.25;;;14.38;59.91
5380;BME280;2713;42.680;23.310;2022-09-21T07:57:41;95273.34;;;14.10;60.16
5380;BME280;2713;42.680;23.310;2022-09-21T08:00:27;95271.22;;;13.86;61.14
5380;BME280;2713;42.680;23.310;2022-09-21T08:02:57;95275.34;;;14.15;60.51
5380;BME280;2713;42.680;23.310;2022-09-21T08:05:25;95258.75;;;14.36;59.62
5380;BME280;2713;42.680;23.310;2022-09-21T08:07:54;95267.72;;;14.13;58.69
5380;BME280;2713;42.680;23.310;2022-09-21T08:10:21;95262.06;;;14.10;59.31
5380;BME280;2713;42.680;23.310;2022-09-21T08:12:48;95264.31;;;14.19;59.53
5380;BME280;2713;42.680;23.310;2022-09-21T08:15:15;95271.34;;;14.26;59.96
5380;BME280;2713;42.680;23.310;2022-09-21T08:17:44;95261.88;;;14.18;59.68
5380;BME280;2713;42.680;23.310;2022-09-21T08:20:10;95262.94;;;14.30;59.24
5380;BME280;2713;42.680;23.310;2022-09-21T08:22:38;95256.56;;;14.52;59.00
5380;BME280;2713;42.680;23.310;2022-09-21T08:25:05;95265.63;;;14.56;58.90
5380;BME280;2713;42.680;23.310;2022-09-21T08:27:32;95270.31;;;14.87;58.92
5380;BME280;2713;42.680;23.310;2022-09-21T08:29:59;95261.66;;;15.19;57.43
5380;BME280;2713;42.680;23.310;2022-09-21T08:32:27;95254.19;;;15.30;57.01
5380;BME280;2713;42.680;23.310;2022-09-21T08:34:56;95255.59;;;15.32;56.69
5380;BME280;2713;42.680;23.310;2022-09-21T08:37:23;95256.00;;;15.55;55.51
5380;BME280;2713;42.680;23.310;2022-09-21T08:39:50;95255.38;;;15.47;55.30
5380;BME280;2713;42.680;23.310;2022-09-21T08:42:32;95263.59;;;15.77;55.00
5380;BME280;2713;42.680;23.310;2022-09-21T08:45:05;95255.09;;;15.94;53.35
5380;BME280;2713;42.680;23.310;2022-09-21T08:47:38;95251.66;;;15.94;52.54
5380;BME280;2713;42.680;23.310;2022-09-21T08:50:22;95251.31;;;15.77;52.41
5380;BME280;2713;42.680;23.310;2022-09-21T08:52:57;95254.75;;;15.78;52.80
5380;BME280;2713;42.680;23.310;2022-09-21T08:55:26;95244.84;;;15.80;53.12
5380;BME280;2713;42.680;23.310;2022-09-21T08:57:53;95250.34;;;15.39;53.61
5380;BME280;2713;42.680;23.310;2022-09-21T09:00:20;95247.34;;;15.48;54.05
5380;BME280;2713;42.680;23.310;2022-09-21T09:03:17;95243.91;;;15.61;53.42
5380;BME280;2713;42.680;23.310;2022-09-21T09:05:53;95233.31;;;15.94;53.31
5380;BME280;2713;42.680;23.310;2022-09-21T09:08:39;95233.47;;;16.05;52.95
5380;BME280;2713;42.680;23.310;2022-09-21T09:11:20;95231.63;;;16.12;52.42
5380;BME280;2713;42.680;23.310;2022-09-21T09:14:13;95223.03;;;15.86;52.57
5380;BME280;2713;42.680;23.310;2022-09-21T09:16:54;95227.50;;;15.85;52.69
5380;BME280;2713;42.680;23.310;2022-09-21T09:19:29;95225.06;;;15.84;52.61
5380;BME280;2713;42.680;23.310;2022-09-21T09:22:02;95226.38;;;15.48;52.97
5380;BME280;2713;42.680;23.310;2022-09-21T09:24:32;95219.53;;;15.28;54.09
5380;BME280;2713;42.680;23.310;2022-09-21T09:27:03;95221.59;;;15.06;54.26
5380;BME280;2713;42.680;23.310;2022-09-21T09:29:39;95218.72;;;15.20;54.31
5380;BME280;2713;42.680;23.310;2022-09-21T09:32:12;95219.94;;;15.24;53.14
5380;BME280;2713;42.680;23.310;2022-09-21T09:34:42;95210.28;;;15.51;52.98
5380;BME280;2713;42.680;23.310;2022-09-21T09:37:13;95217.50;;;15.49;52.06
5380;BME280;2713;42.680;23.310;2022-09-21T09:39:41;95218.88;;;15.71;50.83
5380;BME280;2713;42.680;23.310;2022-09-21T09:42:25;95205.97;;;15.70;51.72
5380;BME280;2713;42.680;23.310;2022-09-21T09:45:08;95192.19;;;15.88;51.15
5380;BME280;2713;42.680;23.310;2022-09-21T09:47:49;95204.47;;;16.32;49.65
5380;BME280;2713;42.680;23.310;2022-09-21T09:50:27;95191.84;;;16.15;48.56
5380;BME280;2713;42.680;23.310;2022-09-21T09:53:00;95203.94;;;16.16;49.59
5380;BME280;2713;42.680;23.310;2022-09-21T09:55:34;95204.97;;;15.71;49.01
5380;BME280;2713;42.680;23.310;2022-09-21T09:58:03;95199.03;;;15.95;49.64
5380;BME280;2713;42.680;23.310;2022-09-21T10:00:30;95197.91;;;16.16;49.72
5380;BME280;2713;42.680;23.310;2022-09-21T10:03:01;95190.84;;;16.10;49.32
5380;BME280;2713;42.680;23.310;2022-09-21T10:05:31;95196.38;;;16.02;48.34
5380;BME280;2713;42.680;23.310;2022-09-21T10:08:00;95187.66;;;16.08;47.87
5380;BME280;2713;42.680;23.310;2022-09-21T10:10:35;95176.53;;;15.75;49.12
5380;BME280;2713;42.680;23.310;2022-09-21T10:13:11;95179.47;;;15.91;48.70
5380;BME280;2713;42.680;23.310;2022-09-21T10:15:43;95168.88;;;15.66;48.77
5380;BME280;2713;42.680;23.310;2022-09-21T10:18:17;95178.38;;;15.61;49.32
5380;BME280;2713;42.680;23.310;2022-09-21T10:20:56;95175.91;;;15.72;48.29
5380;BME280;2713;42.680;23.310;2022-09-21T10:23:26;95176.09;;;16.22;46.90
5380;BME280;2713;42.680;23.310;2022-09-21T10:26:00;95159.56;;;16.78;46.01
5380;BME280;2713;42.680;23.310;2022-09-21T10:28:29;95167.88;;;16.75;45.31
5380;BME280;2713;42.680;23.310;2022-09-21T10:31:11;95143.88;;;16.40;45.60
5380;BME280;2713;42.680;23.310;2022-09-21T10:33:50;95140.06;;;16.67;45.03
5380;BME280;2713;42.680;23.310;2022-09-21T10:36:26;95143.38;;;17.23;43.59
5380;BME280;2713;42.680;23.310;2022-09-21T10:38:56;95138.59;;;16.96;44.58
5380;BME280;2713;42.680;23.310;2022-09-21T10:41:36;95129.66;;;16.79;44.22
5380;BME280;2713;42.680;23.310;2022-09-21T10:44:04;95131.34;;;16.73;43.30
5380;BME280;2713;42.680;23.310;2022-09-21T10:46:37;95138.66;;;16.64;42.78
5380;BME280;2713;42.680;23.310;2022-09-21T10:49:14;95137.81;;;16.70;42.92
5380;BME280;2713;42.680;23.310;2022-09-21T10:51:44;95137.50;;;16.60;44.11
5380;BME280;2713;42.680;23.310;2022-09-21T10:54:20;95128.00;;;16.59;44.29
5380;BME280;2713;42.680;23.310;2022-09-21T10:56:53;95133.41;;;16.64;44.02
5380;BME280;2713;42.680;23.310;2022-09-21T10:59:24;95124.25;;;16.73;43.86
5380;BME280;2713;42.680;23.310;2022-09-21T11:01:52;95116.75;;;17.02;42.92
5380;BME280;2713;42.680;23.310;2022-09-21T11:04:36;95115.63;;;17.28;42.86
5380;BME280;2713;42.680;23.310;2022-09-21T11:07:12;95117.13;;;16.81;42.52
5380;BME280;2713;42.680;23.310;2022-09-21T11:09:49;95117.00;;;16.94;41.70
5380;BME280;2713;42.680;23.310;2022-09-21T11:12:38;95116.44;;;16.67;42.30
5380;BME280;2713;42.680;23.310;2022-09-21T11:15:16;95119.03;;;16.42;43.87
5380;BME280;2713;42.680;23.310;2022-09-21T11:17:49;95111.00;;;16.37;44.91
5380;BME280;2713;42.680;23.310;2022-09-21T11:20:24;95114.97;;;16.46;46.33
5380;BME280;2713;42.680;23.310;2022-09-21T11:23:03;95079.16;;;16.58;45.68
5380;BME280;2713;42.680;23.310;2022-09-21T11:25:42;95113.97;;;16.72;43.80
5380;BME280;2713;42.680;23.310;2022-09-21T11:28:15;95116.06;;;16.63;43.89
5380;BME280;2713;42.680;23.310;2022-09-21T11:31:00;95116.00;;;16.95;48.34
5380;BME280;2713;42.680;23.310;2022-09-21T11:33:39;95121.00;;;16.96;50.79
5380;BME280;2713;42.680;23.310;2022-09-21T11:36:16;95126.56;;;16.63;44.20
5380;BME280;2713;42.680;23.310;2022-09-21T11:38:53;95123.03;;;16.45;43.61
5380;BME280;2713;42.680;23.310;2022-09-21T11:41:43;95116.75;;;16.21;43.47
5380;BME280;2713;42.680;23.310;2022-09-21T11:44:19;95115.41;;;16.43;45.73
5380;BME280;2713;42.680;23.310;2022-09-21T11:46:56;95118.81;;;16.19;45.56
5380;BME280;2713;42.680;23.310;2022-09-21T11:49:36;95122.44;;;16.18;48.62
5380;BME280;2713;42.680;23.310;2022-09-21T11:52:15;95133.44;;;16.33;50.40
5380;BME280;2713;42.680;23.310;2022-09-21T11:57:43;95137.09;;;15.94;50.04
5380;BME280;2713;42.680;23.310;2022-09-21T12:00:16;95144.63;;;15.84;50.83
5380;BME280;2713;42.680;23.310;2022-09-21T12:03:16;95144.75;;;15.58;50.79
5380;BME280;2713;42.680;23.310;2022-09-21T12:06:00;95151.66;;;15.26;51.92
5380;BME280;2713;42.680;23.310;2022-09-21T12:08:49;95147.22;;;15.33;52.07
5380;BME280;2713;42.680;23.310;2022-09-21T12:11:30;95146.16;;;15.47;52.53
5380;BME280;2713;42.680;23.310;2022-09-21T12:14:06;95134.88;;;15.53;51.78
5380;BME280;2713;42.680;23.310;2022-09-21T12:16:40;95142.91;;;15.65;51.69
5380;BME280;2713;42.680;23.310;2022-09-21T12:19:16;95143.88;;;15.70;51.27
5380;BME280;2713;42.680;23.310;2022-09-21T12:21:48;95153.00;;;15.61;50.91
5380;BME280;2713;42.680;23.310;2022-09-21T12:24:21;95157.41;;;15.67;51.34
5380;BME280;2713;42.680;23.310;2022-09-21T12:26:51;95148.72;;;15.67;51.77
5380;BME280;2713;42.680;23.310;2022-09-21T12:29:25;95145.31;;;15.66;51.39
5380;BME280;2713;42.680;23.310;2022-09-21T12:32:01;95157.75;;;15.78;51.47
5380;BME280;2713;42.680;23.310;2022-09-21T12:34:34;95151.28;;;15.80;51.93
5380;BME280;2713;42.680;23.310;2022-09-21T12:37:07;95148.13;;;15.71;51.93
5380;BME280;2713;42.680;23.310;2022-09-21T12:39:41;95137.19;;;15.81;52.68
5380;BME280;2713;42.680;23.310;2022-09-21T12:42:24;95139.00;;;15.81;52.55
5380;BME280;2713;42.680;23.310;2022-09-21T12:44:54;95139.34;;;15.91;52.30
5380;BME280;2713;42.680;23.310;2022-09-21T12:47:29;95136.22;;;16.07;52.12
5380;BME280;2713;42.680;23.310;2022-09-21T12:50:04;95136.28;;;15.94;51.54
5380;BME280;2713;42.680;23.310;2022-09-21T12:52:34;95130.50;;;15.85;50.21
5380;BME280;2713;42.680;23.310;2022-09-21T12:55:09;95121.41;;;15.88;47.57
5380;BME280;2713;42.680;23.310;2022-09-21T12:57:50;95105.47;;;15.89;48.11
5380;BME280;2713;42.680;23.310;2022-09-21T13:00:20;95131.97;;;15.75;51.24
5380;BME280;2713;42.680;23.310;2022-09-21T13:02:52;95135.09;;;15.90;51.55
5380;BME280;2713;42.680;23.310;2022-09-21T13:05:35;95126.06;;;16.17;49.92
5380;BME280;2713;42.680;23.310;2022-09-21T13:08:10;95115.41;;;16.43;49.18
5380;BME280;2713;42.680;23.310;2022-09-21T13:10:44;95125.75;;;16.63;49.06
5380;BME280;2713;42.680;23.310;2022-09-21T13:13:27;95111.28;;;16.54;47.99
5380;BME280;2713;42.680;23.310;2022-09-21T13:15:57;95115.31;;;16.56;48.22
5380;BME280;2713;42.680;23.310;2022-09-21T13:18:26;95119.50;;;16.33;47.36
5380;BME280;2713;42.680;23.310;2022-09-21T13:20:54;95120.75;;;16.55;47.31
5380;BME280;2713;42.680;23.310;2022-09-21T13:23:25;95109.28;;;16.56;46.71
5380;BME280;2713;42.680;23.310;2022-09-21T13:26:05;95120.28;;;16.64;46.45
5380;BME280;2713;42.680;23.310;2022-09-21T13:29:01;95113.53;;;16.50;44.46
5380;BME280;2713;42.680;23.310;2022-09-21T13:31:39;95111.84;;;16.31;44.34
5380;BME280;2713;42.680;23.310;2022-09-21T13:34:21;95116.56;;;16.47;45.04
5380;BME280;2713;42.680;23.310;2022-09-21T13:37:22;95121.22;;;16.77;44.36
5380;BME280;2713;42.680;23.310;2022-09-21T13:43:23;95114.09;;;16.28;45.55